Time;durP1;ratioP1;P1;durP2;ratioP2;P2;SDS_P1;SDS_P2;PMS_P1;PMS_P2;Temp;Humidity;BMP_temperature;BMP_pressure;BME280_temperature;BME280_humidity;BME280_pressure;Samples;Min_cycle;Max_cycle;Signal;HPM_P1;HPM_P2
2023/10/31 07:23:24;;;;;;;7.55;0.80;;;;;;;7.90;95.13;95475.91;2100205;27;20570;-60
2023/10/31 08:00:35;;;;;;;4.65;0.90;;;;;;;8.47;94.76;95501.56;2081958;28;20596;-61
2023/10/31 08:03:39;;;;;;;2.88;1.00;;;;;;;8.66;94.25;95509.19;2081673;28;20529;-61
2023/10/31 08:06:31;;;;;;;4.30;1.40;;;;;;;8.77;93.26;95521.59;2064816;28;20583;-60
2023/10/31 08:07:32;;;;;;;3.60;1.17;;;;;;;8.78;93.39;95521.50;2061378;28;20914;-61
2023/10/31 08:08:34;;;;;;;8.00;2.45;;;;;;;8.81;93.12;95520.50;2061011;28;20191;-61
2023/10/31 08:11:26;;;;;;;4.38;1.20;;;;;;;8.74;93.08;95513.97;2083396;28;20569;-61
2023/10/31 08:12:28;;;;;;;4.22;1.30;;;;;;;8.84;93.58;95522.94;2074557;28;20233;-61
2023/10/31 08:15:25;;;;;;;5.25;0.98;;;;;;;8.88;93.22;95518.41;2090420;28;20578;-61
2023/10/31 08:16:27;;;;;;;7.47;2.63;;;;;;;8.93;92.77;95526.78;2090347;28;20245;-60
2023/10/31 08:17:29;;;;;;;17.23;10.07;;;;;;;8.88;91.52;95521.84;2085625;27;20874;-60
2023/10/31 08:19:57;;;;;;;5.90;2.03;;;;;;;8.94;91.07;95523.28;2084143;28;20941;-60
2023/10/31 08:20:58;;;;;;;5.10;0.80;;;;;;;9.04;91.13;95528.78;2083469;28;20342;-60
2023/10/31 08:22:00;;;;;;;3.35;1.17;;;;;;;8.96;91.17;95535.28;2079689;28;20192;-61
2023/10/31 08:23:01;;;;;;;3.33;1.10;;;;;;;8.97;91.23;95530.91;2073635;28;20207;-61
2023/10/31 08:24:04;;;;;;;3.80;1.00;;;;;;;8.96;90.91;95526.59;2073195;28;20273;-61
2023/10/31 08:25:06;;;;;;;4.22;1.33;;;;;;;8.98;90.54;95529.97;2073137;28;20714;-61
2023/10/31 08:26:07;;;;;;;7.38;0.90;;;;;;;9.07;91.10;95536.44;2075625;28;20217;-61
2023/10/31 08:27:12;;;;;;;3.42;1.00;;;;;;;9.09;90.26;95537.16;2072839;28;20213;-61
2023/10/31 08:28:14;;;;;;;4.78;1.15;;;;;;;9.12;90.07;95540.44;2073574;28;20611;-61
2023/10/31 08:29:15;;;;;;;1.70;0.90;;;;;;;9.17;89.95;95527.19;2073994;28;20837;-61
2023/10/31 08:30:17;;;;;;;1.90;0.90;;;;;;;9.23;89.55;95532.03;2072246;28;20194;-61
2023/10/31 08:31:20;;;;;;;4.63;0.82;;;;;;;9.23;89.56;95536.38;2072254;28;20198;-61
2023/10/31 08:32:24;;;;;;;10.43;1.05;;;;;;;9.22;88.62;95532.09;2075331;28;20257;-61
2023/10/31 08:33:26;;;;;;;5.88;1.20;;;;;;;9.32;88.76;95523.69;2074993;28;20276;-61
2023/10/31 08:34:27;;;;;;;1.60;0.90;;;;;;;9.32;88.20;95536.72;2074264;28;20613;-61
2023/10/31 08:35:29;;;;;;;2.35;0.80;;;;;;;9.41;88.14;95526.72;2073592;28;20653;-61
2023/10/31 08:36:31;;;;;;;7.75;1.15;;;;;;;9.46;87.99;95528.09;2072939;28;20202;-61
2023/10/31 08:37:32;;;;;;;4.03;1.00;;;;;;;9.52;87.33;95529.50;2074259;28;20689;-61
2023/10/31 08:38:34;;;;;;;4.13;1.50;;;;;;;9.58;87.54;95529.16;2074902;28;20709;-61
2023/10/31 08:39:36;;;;;;;3.25;0.80;;;;;;;9.56;87.18;95532.78;2074058;28;20300;-61
2023/10/31 08:40:38;;;;;;;3.63;1.02;;;;;;;9.67;87.36;95543.41;2075135;28;20217;-61
2023/10/31 08:41:57;;;;;;;2.67;1.00;;;;;;;9.54;87.43;95543.28;2075547;28;20214;-61
2023/10/31 08:42:58;;;;;;;5.25;0.90;;;;;;;9.56;87.28;95540.59;2073287;28;20568;-61
2023/10/31 08:44:01;;;;;;;4.22;0.80;;;;;;;9.54;87.53;95540.69;2072121;28;20194;-61
2023/10/31 08:45:03;;;;;;;4.38;1.42;;;;;;;9.51;87.71;95534.81;2072177;28;20285;-61
2023/10/31 08:46:05;;;;;;;7.18;1.10;;;;;;;9.54;87.30;95542.47;2075576;28;20257;-61
2023/10/31 08:47:07;;;;;;;6.38;1.10;;;;;;;9.62;87.46;95540.25;2075172;28;20217;-61
2023/10/31 08:48:08;;;;;;;4.50;0.90;;;;;;;9.62;87.50;95542.84;2074700;28;20191;-61
2023/10/31 08:49:10;;;;;;;5.88;1.17;;;;;;;9.82;87.36;95546.88;2072426;28;20190;-61
2023/10/31 08:50:13;;;;;;;9.45;1.38;;;;;;;10.13;85.41;95548.50;2073732;28;20204;-61
2023/10/31 08:51:15;;;;;;;3.42;1.15;;;;;;;10.37;84.76;95547.97;2073447;28;20202;-61
2023/10/31 08:52:17;;;;;;;1.75;0.82;;;;;;;10.62;83.66;95543.84;2073280;28;20234;-61
2023/10/31 08:53:19;;;;;;;3.90;0.90;;;;;;;10.75;82.11;95555.22;2073891;28;20226;-61
2023/10/31 08:54:21;;;;;;;3.38;0.80;;;;;;;11.14;81.25;95551.94;2073218;28;20198;-62
2023/10/31 08:55:22;;;;;;;21.92;6.22;;;;;;;11.67;79.74;95559.81;2073562;28;20306;-61
2023/10/31 08:56:23;;;;;;;9.13;1.85;;;;;;;11.84;78.33;95556.91;2073867;28;20195;-62
2023/10/31 08:57:25;;;;;;;12.65;4.70;;;;;;;11.62;78.81;95556.66;2072475;28;20238;-62
2023/10/31 08:58:28;;;;;;;7.22;3.42;;;;;;;11.24;80.62;95558.25;2072674;28;20200;-62
2023/10/31 08:59:29;;;;;;;4.32;0.90;;;;;;;10.67;81.35;95554.84;2073537;28;20564;-62
2023/10/31 09:00:31;;;;;;;4.07;0.82;;;;;;;10.55;82.67;95560.81;2074996;28;20567;-62
2023/10/31 09:01:33;;;;;;;1.48;0.70;;;;;;;10.26;83.30;95561.66;2074488;28;20240;-62
2023/10/31 09:02:35;;;;;;;4.05;0.90;;;;;;;10.21;83.89;95550.66;2074358;28;20289;-63
2023/10/31 09:03:36;;;;;;;3.03;0.80;;;;;;;10.16;83.36;95550.09;2074215;28;20202;-61
2023/10/31 09:04:38;;;;;;;5.43;1.10;;;;;;;10.30;83.67;95552.69;2074428;28;20841;-63
2023/10/31 09:05:40;;;;;;;4.15;0.80;;;;;;;10.28;83.93;95549.34;2073650;28;20283;-62
2023/10/31 09:06:41;;;;;;;4.80;1.23;;;;;;;10.52;83.48;95561.03;2074431;28;20639;-63
2023/10/31 09:07:43;;;;;;;8.43;1.30;;;;;;;10.52;81.86;95567.06;2069558;28;20226;-62
2023/10/31 09:08:44;;;;;;;2.78;0.90;;;;;;;10.72;81.59;95563.22;2070887;28;20240;-62
2023/10/31 09:09:46;;;;;;;5.60;1.00;;;;;;;10.92;80.50;95561.16;2072729;28;20201;-62
2023/10/31 09:10:47;;;;;;;7.60;0.90;;;;;;;11.23;79.79;95559.19;2072782;28;20731;-62
2023/10/31 09:11:49;;;;;;;3.75;1.10;;;;;;;11.49;79.58;95567.09;2071711;28;20196;-62
2023/10/31 09:12:50;;;;;;;6.80;1.92;;;;;;;11.91;78.60;95559.97;2071694;28;20205;-63
2023/10/31 09:13:52;;;;;;;4.15;1.00;;;;;;;12.25;76.45;95560.31;2073369;28;20254;-62
2023/10/31 09:14:53;;;;;;;2.85;1.05;;;;;;;12.24;76.09;95558.66;2071173;28;20828;-63
2023/10/31 09:15:55;;;;;;;2.80;0.88;;;;;;;12.56;75.57;95560.81;2071181;28;20296;-63
2023/10/31 09:16:56;;;;;;;3.53;1.00;;;;;;;12.90;74.32;95556.66;2073014;28;20198;-63
2023/10/31 09:17:58;;;;;;;3.05;0.90;;;;;;;13.10;74.04;95551.75;2071618;28;20289;-63
2023/10/31 09:19:00;;;;;;;7.38;1.05;;;;;;;13.67;72.26;95552.88;2071906;28;20199;-63
2023/10/31 09:20:02;;;;;;;5.60;1.00;;;;;;;13.69;69.58;95547.53;2071053;28;20669;-62
2023/10/31 09:21:06;;;;;;;6.22;0.90;;;;;;;14.33;68.09;95551.47;2070634;28;20558;-63
2023/10/31 09:22:08;;;;;;;3.33;1.00;;;;;;;14.48;67.04;95552.88;2072586;28;20309;-62
2023/10/31 09:23:09;;;;;;;7.32;0.88;;;;;;;14.44;66.45;95546.22;2073554;28;20222;-62
2023/10/31 09:24:11;;;;;;;4.78;1.00;;;;;;;14.39;66.60;95555.41;2072674;28;20313;-62
2023/10/31 09:25:13;;;;;;;5.10;1.20;;;;;;;14.60;66.65;95552.88;2071807;28;20287;-62
2023/10/31 09:26:14;;;;;;;5.93;1.00;;;;;;;14.63;66.13;95556.13;2071801;28;20273;-62
2023/10/31 09:27:16;;;;;;;6.63;1.00;;;;;;;14.63;66.13;95556.13;2071687;28;20237;-62
2023/10/31 09:28:17;;;;;;;13.18;1.88;;;;;;;15.41;64.57;95550.84;2071339;28;20191;-62
2023/10/31 09:29:18;;;;;;;3.75;1.05;;;;;;;15.31;63.54;95555.19;2072329;28;20206;-62
2023/10/31 09:30:30;;;;;;;5.72;1.08;;;;;;;15.32;63.68;95560.31;2071724;28;20197;-62
2023/10/31 09:31:32;;;;;;;7.40;1.13;;;;;;;15.86;63.59;95554.28;2079581;28;20197;-62
2023/10/31 09:32:33;;;;;;;7.75;1.50;;;;;;;15.31;63.55;95558.69;2080989;28;20290;-63
2023/10/31 09:33:35;;;;;;;9.43;1.25;;;;;;;15.35;64.59;95546.13;2068575;28;20194;-62
2023/10/31 09:34:36;;;;;;;5.55;1.20;;;;;;;15.84;63.97;95557.06;2068132;28;20586;-62
2023/10/31 09:35:38;;;;;;;6.05;1.38;;;;;;;15.75;64.06;95555.16;2067012;28;20822;-62
2023/10/31 09:36:39;;;;;;;6.50;0.90;;;;;;;15.66;62.73;95560.22;2065850;28;20658;-62
2023/10/31 09:37:44;;;;;;;4.00;1.23;;;;;;;15.30;64.15;95564.91;2065752;28;20245;-62
2023/10/31 09:38:45;;;;;;;5.20;1.10;;;;;;;15.65;63.68;95560.34;2069245;28;20373;-62
2023/10/31 09:39:47;;;;;;;4.40;1.15;;;;;;;15.12;64.96;95558.47;2069544;28;20492;-62
2023/10/31 09:40:50;;;;;;;8.60;1.10;;;;;;;14.42;68.30;95558.63;2070012;28;20198;-62
2023/10/31 09:41:51;;;;;;;8.88;1.40;;;;;;;13.55;69.33;95562.50;2069059;28;20205;-62
2023/10/31 09:42:55;;;;;;;8.10;1.98;;;;;;;12.94;71.20;95562.50;2067883;28;20591;-62
2023/10/31 09:43:56;;;;;;;4.78;1.13;;;;;;;12.56;72.42;95566.06;2065530;28;20206;-62
2023/10/31 09:44:58;;;;;;;12.23;1.35;;;;;;;12.42;73.82;95564.41;2068853;28;20641;-62
2023/10/31 09:46:00;;;;;;;9.30;1.30;;;;;;;12.18;74.72;95569.53;2068218;28;20238;-62
2023/10/31 09:47:02;;;;;;;10.05;1.48;;;;;;;11.79;75.44;95573.88;2066087;28;20202;-63
2023/10/31 09:48:03;;;;;;;6.60;1.17;;;;;;;11.57;76.60;95570.88;2067710;28;20198;-62
2023/10/31 09:49:05;;;;;;;8.77;1.75;;;;;;;11.45;76.54;95561.22;2067822;28;20396;-62
2023/10/31 09:50:09;;;;;;;9.48;1.10;;;;;;;11.55;77.77;95569.31;2067744;28;20477;-62
2023/10/31 09:51:11;;;;;;;7.93;1.60;;;;;;;11.65;77.87;95567.75;2068841;28;20197;-63
2023/10/31 09:52:13;;;;;;;5.55;1.55;;;;;;;11.59;77.80;95565.53;2066779;28;20222;-63
2023/10/31 09:53:18;;;;;;;7.18;1.40;;;;;;;11.55;77.75;95569.31;2067037;28;20206;-62
2023/10/31 09:54:20;;;;;;;18.40;1.50;;;;;;;11.52;77.93;95572.13;2067842;28;20293;-62
2023/10/31 09:55:23;;;;;;;7.75;1.33;;;;;;;11.69;78.09;95565.78;2068912;28;20194;-62
2023/10/31 09:56:25;;;;;;;6.53;1.50;;;;;;;11.62;79.40;95572.34;2067833;28;20205;-63
2023/10/31 09:57:28;;;;;;;4.63;1.15;;;;;;;11.51;78.72;95565.22;2067052;28;20780;-63
2023/10/31 09:58:29;;;;;;;4.15;1.30;;;;;;;11.24;78.26;95571.31;2067863;28;20249;-61
2023/10/31 09:59:31;;;;;;;7.63;1.20;;;;;;;11.03;78.20;95568.28;2069010;28;20194;-62
2023/10/31 10:00:32;;;;;;;8.30;1.10;;;;;;;10.90;79.59;95561.22;2068364;28;20704;-62
2023/10/31 10:01:35;;;;;;;7.88;1.25;;;;;;;10.86;79.81;95564.16;2068562;28;20388;-62
2023/10/31 10:02:37;;;;;;;5.65;1.10;;;;;;;10.72;80.18;95563.22;2067224;28;20685;-62
2023/10/31 10:03:40;;;;;;;5.57;1.23;;;;;;;10.76;80.60;95566.50;2068715;28;20637;-61
2023/10/31 10:04:42;;;;;;;5.38;1.02;;;;;;;10.70;80.47;95556.44;2068718;28;20204;-62
2023/10/31 10:05:45;;;;;;;3.38;0.95;;;;;;;10.68;81.19;95553.91;2066497;28;20291;-61
2023/10/31 10:06:51;;;;;;;4.13;1.00;;;;;;;10.71;81.25;95564.16;2067882;28;20204;-62
2023/10/31 10:07:55;;;;;;;6.50;1.00;;;;;;;10.75;81.35;95560.44;2068391;28;20254;-62
2023/10/31 10:08:57;;;;;;;6.60;1.30;;;;;;;10.67;81.21;95560.06;2068195;28;20403;-62
2023/10/31 10:10:00;;;;;;;6.90;1.10;;;;;;;10.60;81.30;95569.19;2069176;28;20208;-62
2023/10/31 10:11:02;;;;;;;6.30;1.40;;;;;;;10.71;82.43;95566.75;2068438;28;20204;-61
2023/10/31 10:12:05;;;;;;;3.45;1.10;;;;;;;10.76;82.03;95561.25;2065488;28;20550;-61
2023/10/31 10:13:06;;;;;;;11.32;1.02;;;;;;;10.78;82.53;95557.63;2068346;28;20538;-61
2023/10/31 10:14:10;;;;;;;8.23;1.30;;;;;;;10.85;82.39;95563.28;2066107;28;20205;-61
2023/10/31 10:15:12;;;;;;;5.35;0.90;;;;;;;10.80;82.13;95565.34;2067305;28;20746;-62
2023/10/31 10:16:27;;;;;;;4.55;0.95;;;;;;;10.69;82.03;95559.97;2066389;28;20197;-61
2023/10/31 10:17:29;;;;;;;6.53;1.10;;;;;;;10.71;81.92;95555.50;2067635;28;20246;-62
2023/10/31 10:18:34;;;;;;;7.35;1.52;;;;;;;10.69;82.11;95554.75;2067836;28;20189;-62
2023/10/31 10:19:35;;;;;;;10.48;1.10;;;;;;;10.61;82.20;95558.69;2069310;28;20775;-61
2023/10/31 10:20:54;;;;;;;6.35;1.10;;;;;;;10.66;82.94;95558.38;2067734;28;20339;-61
2023/10/31 10:21:58;;;;;;;11.70;1.35;;;;;;;10.62;83.27;95559.50;2066993;28;21010;-62
2023/10/31 10:23:04;;;;;;;3.60;1.10;;;;;;;10.64;83.60;95560.28;2067166;28;20188;-61
2023/10/31 10:24:06;;;;;;;8.75;1.00;;;;;;;10.67;83.41;95567.91;2069246;28;20217;-61
2023/10/31 10:25:09;;;;;;;6.95;1.23;;;;;;;10.65;83.79;95564.53;2068050;28;20209;-62
2023/10/31 10:26:10;;;;;;;6.40;1.17;;;;;;;10.67;83.97;95570.50;2065153;28;20201;-62
2023/10/31 10:27:12;;;;;;;2.78;0.90;;;;;;;10.70;83.20;95562.47;2068072;28;20227;-61
2023/10/31 10:28:14;;;;;;;5.53;0.80;;;;;;;10.68;82.11;95571.34;2068828;28;20640;-62
2023/10/31 10:29:15;;;;;;;8.93;1.17;;;;;;;10.72;82.89;95578.88;2068180;28;20647;-61
2023/10/31 10:30:17;;;;;;;14.85;1.50;;;;;;;10.71;82.75;95563.31;2066158;28;20750;-61
2023/10/31 10:31:18;;;;;;;3.85;0.80;;;;;;;10.82;82.58;95573.94;2070393;28;20202;-62
2023/10/31 10:32:20;;;;;;;3.55;0.80;;;;;;;10.86;83.34;95577.19;2068303;28;20228;-63
2023/10/31 10:33:22;;;;;;;5.15;0.82;;;;;;;10.81;82.61;95577.47;2064569;28;20200;-62
2023/10/31 10:34:24;;;;;;;3.30;0.80;;;;;;;10.74;82.17;95571.81;2068719;28;20212;-62
2023/10/31 10:35:25;;;;;;;4.00;0.80;;;;;;;10.69;82.32;95578.25;2069329;28;20228;-62
2023/10/31 10:36:27;;;;;;;6.00;1.45;;;;;;;10.66;82.40;95571.44;2067804;28;20830;-62
2023/10/31 10:37:30;;;;;;;8.93;1.02;;;;;;;10.75;82.53;95567.41;2066099;28;20221;-62
2023/10/31 10:38:35;;;;;;;4.35;1.00;;;;;;;10.77;82.45;95570.78;2066521;28;20706;-62
2023/10/31 10:39:40;;;;;;;6.22;1.20;;;;;;;10.86;82.57;95572.81;2067419;28;20274;-62
2023/10/31 10:40:43;;;;;;;6.40;1.17;;;;;;;10.91;82.99;95578.56;2067643;28;20250;-62
2023/10/31 10:41:57;;;;;;;7.65;1.08;;;;;;;11.12;81.97;95570.31;2067779;28;20289;-62
2023/10/31 10:43:01;;;;;;;3.97;0.75;;;;;;;11.15;81.94;95577.09;2068270;28;20728;-61
2023/10/31 10:44:06;;;;;;;2.88;0.90;;;;;;;11.25;81.12;95579.03;2066335;28;20762;-61
2023/10/31 10:45:11;;;;;;;2.15;0.80;;;;;;;11.23;81.24;95585.31;2068190;28;20195;-62
2023/10/31 10:46:17;;;;;;;4.05;1.00;;;;;;;11.08;81.36;95577.53;2067598;28;20655;-61
2023/10/31 10:47:19;;;;;;;4.93;0.80;;;;;;;11.09;81.10;95578.34;2066000;28;20445;-62
2023/10/31 10:48:22;;;;;;;4.05;1.27;;;;;;;11.14;81.48;95578.06;2068457;28;20307;-62
2023/10/31 10:49:25;;;;;;;2.78;0.80;;;;;;;11.07;81.56;95578.47;2068355;28;20624;-62
2023/10/31 10:50:30;;;;;;;6.05;1.00;;;;;;;11.09;81.07;95573.13;2067579;28;20197;-63
2023/10/31 10:55:55;;;;;;;2.95;1.50;;;;;;;11.06;82.29;95574.16;2082770;28;20566;-62
2023/10/31 10:57:08;;;;;;;2.53;0.90;;;;;;;11.08;82.21;95574.06;2078304;28;20529;-62
2023/10/31 10:58:37;;;;;;;2.50;0.82;;;;;;;11.18;82.02;95571.69;2073684;28;20199;-62
2023/10/31 10:59:42;;;;;;;4.78;0.90;;;;;;;11.22;80.98;95576.66;2071295;28;20235;-62
2023/10/31 11:00:44;;;;;;;4.95;0.80;;;;;;;11.17;80.59;95572.63;2073853;28;20284;-63
2023/10/31 11:01:48;;;;;;;5.28;1.17;;;;;;;11.04;81.20;95565.56;2073941;28;20199;-63
2023/10/31 11:02:52;;;;;;;2.88;1.00;;;;;;;11.13;81.53;95571.16;2072782;28;20231;-62
2023/10/31 11:03:55;;;;;;;5.38;0.88;;;;;;;11.16;81.39;95577.03;2073972;28;20192;-62
2023/10/31 11:04:58;;;;;;;4.75;0.88;;;;;;;11.36;80.39;95572.28;2075254;28;20204;-63
2023/10/31 11:06:05;;;;;;;3.78;0.85;;;;;;;12.16;78.33;95569.63;2072966;28;20648;-62
2023/10/31 11:07:08;;;;;;;4.95;0.85;;;;;;;12.62;76.53;95572.63;2072541;28;21254;-63
2023/10/31 11:08:10;;;;;;;1.58;0.60;;;;;;;12.48;76.73;95570.97;2074975;28;20642;-62
2023/10/31 11:09:13;;;;;;;5.50;0.80;;;;;;;12.14;76.78;95571.53;2074267;28;20287;-62
2023/10/31 11:10:17;;;;;;;1.83;0.70;;;;;;;11.92;77.63;95572.09;2072169;28;20200;-62
2023/10/31 11:11:20;;;;;;;3.50;0.80;;;;;;;11.82;78.88;95573.66;2074008;28;20185;-62
2023/10/31 11:12:23;;;;;;;4.35;0.95;;;;;;;11.88;79.19;95576.72;2073452;28;20380;-62
2023/10/31 11:13:26;;;;;;;8.23;0.80;;;;;;;11.88;79.61;95579.34;2074842;28;20221;-62
2023/10/31 11:14:30;;;;;;;1.92;0.85;;;;;;;12.03;79.15;95582.69;2074454;28;20246;-62
2023/10/31 11:15:31;;;;;;;4.00;0.93;;;;;;;11.78;78.92;95578.25;2074012;28;20203;-62
2023/10/31 11:16:41;;;;;;;2.17;0.70;;;;;;;11.71;78.76;95569.97;2074807;28;20186;-62
2023/10/31 11:17:45;;;;;;;6.28;1.00;;;;;;;11.68;79.71;95583.25;2072945;28;20297;-62
2023/10/31 11:18:47;;;;;;;3.03;0.85;;;;;;;11.72;80.55;95574.28;2073143;28;20716;-62
2023/10/31 11:19:48;;;;;;;3.88;0.70;;;;;;;11.82;79.88;95582.34;2075581;28;20190;-62
2023/10/31 11:20:50;;;;;;;3.08;0.90;;;;;;;11.62;79.14;95578.44;2075128;28;20616;-62
2023/10/31 11:21:58;;;;;;;2.55;0.80;;;;;;;11.60;79.07;95586.38;2074392;28;20189;-62
2023/10/31 11:23:04;;;;;;;1.88;0.85;;;;;;;11.69;79.56;95578.84;2075314;28;20199;-62
2023/10/31 11:24:06;;;;;;;6.63;0.90;;;;;;;11.74;79.21;95582.88;2072451;28;20598;-62
2023/10/31 11:25:13;;;;;;;4.47;1.00;;;;;;;11.76;78.85;95580.97;2074701;28;20197;-62
2023/10/31 11:29:06;;;;;;;3.80;0.88;;;;;;;11.69;79.02;95584.09;2083979;28;20571;-61
2023/10/31 11:30:19;;;;;;;1.50;0.80;;;;;;;11.73;78.39;95588.16;2081870;28;20291;-61
2023/10/31 11:31:21;;;;;;;2.92;0.70;;;;;;;11.79;77.43;95600.03;2084108;28;20198;-61
2023/10/31 11:32:26;;;;;;;1.70;0.80;;;;;;;11.92;77.50;95590.41;2076657;28;20778;-61
2023/10/31 11:33:28;;;;;;;1.77;0.60;;;;;;;11.91;76.91;95584.34;2071638;28;20239;-61
2023/10/31 11:34:30;;;;;;;3.30;0.77;;;;;;;11.66;77.22;95597.38;2073610;28;20239;-61
2023/10/31 11:40:22;;;;;;;3.97;0.75;;;;;;;11.34;79.54;95598.53;2093313;27;20576;-61
2023/10/31 11:45:59;;;;;;;2.05;0.68;;;;;;;11.26;80.22;95609.47;2100257;27;20595;-63
2023/10/31 11:50:40;;;;;;;3.38;1.00;;;;;;;11.03;79.02;95610.91;2087486;28;20563;-60
2023/10/31 11:54:40;;;;;;;3.95;1.45;;;;;;;11.14;79.68;95612.88;2090870;27;20576;-60
2023/10/31 11:58:25;;;;;;;5.05;1.45;;;;;;;11.04;79.49;95603.94;2084706;28;20567;-60
2023/10/31 12:02:18;;;;;;;5.15;0.77;;;;;;;11.02;79.91;95605.78;2086193;27;20571;-61
2023/10/31 12:03:21;;;;;;;2.38;1.00;;;;;;;11.10;79.96;95609.59;2082291;28;20197;-60
2023/10/31 12:04:23;;;;;;;7.32;0.93;;;;;;;11.15;80.04;95609.31;2082023;28;20204;-61
2023/10/31 12:05:26;;;;;;;3.65;0.70;;;;;;;11.18;79.89;95608.28;2080101;28;20221;-65
2023/10/31 12:06:27;;;;;;;4.95;1.10;;;;;;;11.32;79.67;95613.47;2082076;28;20192;-66
2023/10/31 12:07:29;;;;;;;1.50;0.65;;;;;;;11.44;79.19;95612.69;2072721;28;20221;-63
2023/10/31 12:08:31;;;;;;;1.83;0.70;;;;;;;11.57;78.49;95604.88;2069766;28;20198;-63
2023/10/31 12:09:44;;;;;;;4.35;1.55;;;;;;;11.51;78.78;95613.09;2076435;28;20298;-61
2023/10/31 12:10:46;;;;;;;2.20;0.70;;;;;;;11.67;79.22;95617.34;2072076;28;20185;-63
2023/10/31 12:11:47;;;;;;;2.10;0.70;;;;;;;11.72;78.87;95613.50;2075476;28;20187;-65
2023/10/31 12:12:49;;;;;;;5.57;0.95;;;;;;;11.74;78.62;95616.00;2074794;28;20187;-62
2023/10/31 12:14:00;;;;;;;4.53;0.90;;;;;;;11.72;78.67;95623.97;2072912;28;20192;-61
2023/10/31 12:15:06;;;;;;;5.93;1.00;;;;;;;11.63;78.64;95619.34;2076579;28;20665;-60
2023/10/31 12:18:55;;;;;;;3.97;0.63;;;;;;;11.23;80.04;95627.94;2087154;28;20573;-60
2023/10/31 12:23:04;;;;;;;4.95;0.90;;;;;;;11.04;81.51;95628.28;2082860;28;20570;-59
2023/10/31 12:30:01;;;;;;;2.13;1.00;;;;;;;11.08;81.52;95632.38;2084550;28;20931;-61
2023/10/31 12:31:03;;;;;;;1.73;0.80;;;;;;;11.17;81.96;95638.78;2078288;28;20195;-60
2023/10/31 12:32:05;;;;;;;4.00;0.75;;;;;;;11.28;81.20;95635.50;2075225;28;20639;-60
2023/10/31 12:33:06;;;;;;;7.68;0.90;;;;;;;11.34;81.47;95629.03;2068769;28;20230;-60
2023/10/31 12:34:08;;;;;;;1.73;0.60;;;;;;;11.36;81.42;95630.63;2072430;28;20688;-60
2023/10/31 12:35:21;;;;;;;2.30;0.70;;;;;;;11.44;81.29;95630.16;2072009;28;20226;-60
2023/10/31 12:36:25;;;;;;;3.47;0.90;;;;;;;11.54;81.50;95630.38;2071590;28;20202;-60
2023/10/31 12:37:26;;;;;;;1.58;0.75;;;;;;;11.47;80.44;95632.56;2070155;28;20231;-60
2023/10/31 12:38:29;;;;;;;3.38;0.80;;;;;;;11.46;80.80;95635.28;2068950;28;20426;-60
2023/10/31 12:39:31;;;;;;;4.00;0.80;;;;;;;11.56;80.87;95641.59;2071047;28;20661;-61
2023/10/31 12:42:32;;;;;;;1.30;0.60;;;;;;;11.66;80.88;95642.66;2082124;28;20561;-61
2023/10/31 12:43:34;;;;;;;1.33;0.60;;;;;;;11.69;79.79;95642.44;2083032;28;20523;-61
2023/10/31 12:44:35;;;;;;;3.05;0.68;;;;;;;12.12;78.86;95630.13;2080135;28;20191;-61
2023/10/31 12:45:37;;;;;;;1.90;0.60;;;;;;;12.19;77.63;95634.00;2081484;28;20191;-61
2023/10/31 12:46:40;;;;;;;1.70;0.60;;;;;;;12.20;77.26;95631.31;2083496;28;20199;-61
2023/10/31 12:47:42;;;;;;;6.18;0.70;;;;;;;12.25;77.94;95646.69;2082560;28;20242;-61
2023/10/31 12:48:44;;;;;;;2.75;0.70;;;;;;;12.17;77.90;95641.97;2080278;28;20196;-60
2023/10/31 12:49:45;;;;;;;4.68;0.95;;;;;;;12.41;77.38;95639.47;2081502;28;20250;-60
2023/10/31 12:50:48;;;;;;;2.05;0.50;;;;;;;12.27;76.42;95629.09;2081815;28;20192;-60
2023/10/31 12:52:00;;;;;;;2.95;0.93;;;;;;;12.19;77.09;95632.25;2081546;28;20284;-60
2023/10/31 12:53:03;;;;;;;1.95;0.60;;;;;;;12.36;76.64;95636.31;2080393;28;20205;-60
2023/10/31 12:54:05;;;;;;;1.73;0.60;;;;;;;12.16;76.90;95637.66;2081073;28;20699;-61
2023/10/31 12:55:16;;;;;;;1.50;0.60;;;;;;;12.09;76.94;95636.41;2082457;28;20366;-62
2023/10/31 12:56:41;;;;;;;1.40;0.70;;;;;;;12.00;76.64;95637.88;2082593;28;20659;-61
2023/10/31 12:57:43;;;;;;;3.97;1.02;;;;;;;12.03;77.20;95631.59;2083254;28;20615;-61
2023/10/31 12:58:45;;;;;;;1.52;0.68;;;;;;;12.28;76.81;95643.88;2083081;28;20193;-63
2023/10/31 12:59:46;;;;;;;2.03;0.90;;;;;;;12.07;77.16;95633.06;2082522;28;20258;-61
2023/10/31 13:00:48;;;;;;;2.00;0.80;;;;;;;12.05;77.18;95627.94;2082756;28;20206;-61
2023/10/31 13:01:49;;;;;;;2.95;0.77;;;;;;;11.97;77.70;95638.06;2081485;28;20231;-60
2023/10/31 13:02:52;;;;;;;2.65;0.80;;;;;;;12.01;77.19;95630.84;2081797;28;20203;-61
2023/10/31 13:03:54;;;;;;;3.63;0.90;;;;;;;12.23;77.56;95636.31;2076765;28;20197;-61
2023/10/31 13:05:08;;;;;;;2.30;0.80;;;;;;;12.34;76.45;95637.38;2079813;28;20287;-61
2023/10/31 13:06:15;;;;;;;3.30;0.73;;;;;;;12.14;76.75;95636.09;2084580;28;20223;-61
2023/10/31 13:07:26;;;;;;;1.30;0.60;;;;;;;12.06;77.19;95631.38;2083234;28;20228;-61
2023/10/31 13:08:28;;;;;;;4.28;0.70;;;;;;;11.93;77.49;95640.03;2082632;28;20223;-60
2023/10/31 13:09:31;;;;;;;4.43;0.98;;;;;;;11.88;77.81;95634.25;2080719;28;20207;-61
2023/10/31 13:10:33;;;;;;;3.83;0.60;;;;;;;11.91;76.95;95643.69;2081512;28;20282;-61
2023/10/31 13:11:35;;;;;;;4.93;0.70;;;;;;;11.96;77.25;95638.16;2082043;28;20198;-60
2023/10/31 13:12:36;;;;;;;9.60;0.80;;;;;;;11.93;78.02;95647.88;2078800;28;20272;-60
2023/10/31 13:13:38;;;;;;;2.67;0.80;;;;;;;11.83;78.06;95646.78;2081292;28;20203;-61
2023/10/31 13:14:39;;;;;;;2.05;0.85;;;;;;;11.81;77.33;95651.28;2081024;28;20188;-61
2023/10/31 13:15:41;;;;;;;3.85;0.68;;;;;;;11.68;77.53;95647.78;2083237;28;20196;-61
2023/10/31 13:16:42;;;;;;;2.55;0.70;;;;;;;11.66;77.91;95650.50;2082417;28;20202;-60
2023/10/31 13:17:44;;;;;;;2.53;0.70;;;;;;;11.68;77.67;95653.88;2079444;28;20217;-60
2023/10/31 13:18:46;;;;;;;8.30;1.65;;;;;;;11.63;77.98;95649.84;2082950;28;20193;-61
2023/10/31 13:19:47;;;;;;;2.35;1.10;;;;;;;11.62;77.65;95650.78;2082606;28;20193;-61
2023/10/31 13:20:49;;;;;;;1.85;0.65;;;;;;;11.49;78.02;95650.75;2081687;28;20339;-61
2023/10/31 13:21:51;;;;;;;1.73;0.60;;;;;;;11.55;77.99;95661.66;2080814;28;20282;-60
2023/10/31 13:22:52;;;;;;;3.25;0.82;;;;;;;11.59;78.03;95662.28;2080102;28;20195;-61
2023/10/31 13:23:54;;;;;;;3.17;0.70;;;;;;;11.51;77.63;95660.16;2080316;28;20200;-61
2023/10/31 13:24:55;;;;;;;1.80;0.65;;;;;;;11.46;78.06;95659.63;2083170;28;20587;-60
2023/10/31 13:25:57;;;;;;;3.15;0.55;;;;;;;11.52;78.85;95661.84;2082728;28;20199;-60
2023/10/31 13:26:59;;;;;;;11.07;0.80;;;;;;;11.64;78.70;95662.00;2082266;28;20664;-60
2023/10/31 13:28:01;;;;;;;2.58;0.82;;;;;;;11.70;79.05;95664.22;2080973;28;20207;-60
2023/10/31 13:29:02;;;;;;;3.42;0.80;;;;;;;11.64;78.86;95668.06;2080960;28;20196;-60
2023/10/31 13:30:05;;;;;;;3.05;0.70;;;;;;;11.65;78.55;95668.91;2081089;28;20262;-60
2023/10/31 13:31:07;;;;;;;3.80;0.70;;;;;;;11.72;79.11;95662.34;2080646;28;20662;-61
2023/10/31 13:32:11;;;;;;;4.60;0.82;;;;;;;11.82;79.31;95673.03;2083044;28;20225;-60
2023/10/31 13:33:12;;;;;;;3.08;0.82;;;;;;;11.67;78.57;95669.63;2081435;28;20283;-61
2023/10/31 13:34:14;;;;;;;1.67;0.60;;;;;;;11.66;78.96;95667.97;2078186;28;20291;-60
2023/10/31 13:35:16;;;;;;;2.47;0.75;;;;;;;11.60;78.42;95672.66;2081332;28;20318;-61
2023/10/31 13:36:18;;;;;;;1.50;0.65;;;;;;;11.55;78.84;95672.13;2081610;28;20292;-61
2023/10/31 13:37:20;;;;;;;2.67;0.80;;;;;;;11.57;78.78;95667.63;2079836;28;20247;-61
2023/10/31 13:38:22;;;;;;;3.65;0.65;;;;;;;11.57;78.92;95669.41;2082295;28;20201;-61
2023/10/31 13:41:48;;;;;;;1.55;0.60;;;;;;;11.44;79.89;95675.41;2101261;27;21150;-58
2023/10/31 13:42:50;;;;;;;4.55;0.80;;;;;;;11.50;79.32;95676.78;2094013;28;20267;-58
2023/10/31 13:43:51;;;;;;;2.28;0.80;;;;;;;11.46;78.75;95677.09;2094643;28;20255;-58
2023/10/31 13:44:53;;;;;;;2.38;0.80;;;;;;;11.46;79.67;95680.53;2095843;28;20762;-58
2023/10/31 13:45:54;;;;;;;2.40;0.90;;;;;;;11.65;79.47;95668.91;2095145;28;20825;-59
2023/10/31 13:46:56;;;;;;;1.92;0.80;;;;;;;11.69;78.73;95680.84;2093431;28;20284;-59
2023/10/31 13:47:57;;;;;;;3.45;0.95;;;;;;;11.71;78.56;95686.81;2094670;28;20221;-59
2023/10/31 13:48:59;;;;;;;4.65;1.48;;;;;;;11.79;78.12;95676.69;2094764;28;20202;-60
2023/10/31 13:50:00;;;;;;;8.90;4.38;;;;;;;11.76;77.49;95682.97;2094410;28;20185;-58